Time,TemperatureF,DewpointF,PressureIn,WindDirection,WindDirectionDegrees,WindSpeedMPH,WindSpeedGustMPH,Humidity,HourlyPrecipIn,Conditions,Clouds,dailyrainin,SoftwareType,DateUTC
2013-08-05 00:00:00,61.9,49.7,30.07,NW,311,0.0,0.0,64,0.00,,,0.00,WUHU216WMR968SP,2013-08-05 07:00:00,
2013-08-05 00:05:00,62.1,49.9,30.07,NW,311,0.0,0.0,64,0.00,,,0.00,WUHU216WMR968SP,2013-08-05 07:05:00,
2013-08-05 00:10:00,62.4,50.2,30.07,NW,311,0.0,0.0,64,0.00,,,0.00,WUHU216WMR968SP,2013-08-05 07:10:00,
2013-08-05 00:15:00,62.4,50.2,30.07,NW,311,0.0,0.0,64,0.00,,,0.00,WUHU216WMR968SP,2013-08-05 07:15:00,
2013-08-05 00:20:00,62.2,50.0,30.07,NW,311,0.0,0.0,64,0.00,,,0.00,WUHU216WMR968SP,2013-08-05 07:20:00,
2013-08-05 00:25:00,61.9,49.7,30.07,NW,311,0.0,0.0,64,0.00,,,0.00,WUHU216WMR968SP,2013-08-05 07:25:00,
2013-08-05 00:30:00,61.0,48.9,30.07,NW,311,0.0,0.0,64,0.00,,,0.00,WUHU216WMR968SP,2013-08-05 07:30:00,
2013-08-05 00:35:00,60.8,48.7,30.07,NW,311,0.0,0.0,64,0.00,,,0.00,WUHU216WMR968SP,2013-08-05 07:35:00,
2013-08-05 00:40:00,60.6,48.9,30.07,NW,311,0.0,0.0,65,0.00,,,0.00,WUHU216WMR968SP,2013-08-05 07:40:00,
2013-08-05 00:45:00,60.8,49.1,30.07,NW,311,0.0,0.0,65,0.00,,,0.00,WUHU216WMR968SP,2013-08-05 07:45:00,
2013-08-05 00:51:00,61.0,49.3,30.07,NW,311,0.0,0.0,65,0.00,,,0.00,WUHU216WMR968SP,2013-08-05 07:51:00,
2013-08-05 00:56:00,61.3,49.6,30.04,NW,311,0.0,0.0,65,0.00,,,0.00,WUHU216WMR968SP,2013-08-05 07:56:00,
2013-08-05 01:00:00,61.3,49.6,30.04,NW,311,0.0,0.0,65,0.00,,,0.00,WUHU216WMR968SP,2013-08-05 08:00:00,
2013-08-05 01:06:00,61.0,49.3,30.04,NW,311,0.0,0.0,65,0.00,,,0.00,WUHU216WMR968SP,2013-08-05 08:06:00,
2013-08-05 01:11:00,60.6,48.9,30.04,NW,311,0.0,0.0,65,0.00,,,0.00,WUHU216WMR968SP,2013-08-05 08:11:00,
2013-08-05 01:15:00,60.6,48.9,30.04,NW,311,0.0,0.0,65,0.00,,,0.00,WUHU216WMR968SP,2013-08-05 08:15:00,
2013-08-05 01:21:00,61.0,49.3,30.04,NW,311,0.0,0.0,65,0.00,,,0.00,WUHU216WMR968SP,2013-08-05 08:21:00,
2013-08-05 01:26:00,61.2,49.5,30.04,NW,311,0.0,0.0,65,0.00,,,0.00,WUHU216WMR968SP,2013-08-05 08:26:00,
2013-08-05 01:31:00,61.2,49.5,30.04,NW,311,0.0,0.0,65,0.00,,,0.00,WUHU216WMR968SP,2013-08-05 08:31:00,
2013-08-05 01:36:00,61.0,49.3,30.04,NW,311,0.0,0.0,65,0.00,,,0.00,WUHU216WMR968SP,2013-08-05 08:36:00,
2013-08-05 01:41:00,60.8,49.1,30.04,NW,311,0.0,0.0,65,0.00,,,0.00,WUHU216WMR968SP,2013-08-05 08:41:00,
2013-08-05 01:46:00,60.8,49.1,30.04,NW,311,0.0,0.0,65,0.00,,,0.00,WUHU216WMR968SP,2013-08-05 08:46:00,
2013-08-05 01:51:00,60.8,49.5,30.04,NW,311,0.0,0.0,66,0.00,,,0.00,WUHU216WMR968SP,2013-08-05 08:51:00,
2013-08-05 01:56:00,60.6,49.3,30.04,NW,311,0.0,0.0,66,0.00,,,0.00,WUHU216WMR968SP,2013-08-05 08:56:00,
2013-08-05 02:01:00,60.6,49.3,30.04,NW,311,0.0,0.0,66,0.00,,,0.00,WUHU216WMR968SP,2013-08-05 09:01:00,
2013-08-05 02:05:00,60.6,49.3,30.04,NW,311,0.0,0.0,66,0.00,,,0.00,WUHU216WMR968SP,2013-08-05 09:05:00,
2013-08-05 02:11:00,60.6,49.3,30.04,NW,311,0.0,0.0,66,0.00,,,0.00,WUHU216WMR968SP,2013-08-05 09:11:00,
2013-08-05 02:16:00,60.4,49.1,30.04,NW,311,0.0,0.0,66,0.00,,,0.00,WUHU216WMR968SP,2013-08-05 09:16:00,
2013-08-05 02:21:00,60.3,49.0,30.04,NW,311,0.0,0.0,66,0.00,,,0.00,WUHU216WMR968SP,2013-08-05 09:21:00,
2013-08-05 02:26:00,60.3,49.0,30.04,NW,311,0.0,0.0,66,0.00,,,0.00,WUHU216WMR968SP,2013-08-05 09:26:00,
2013-08-05 02:31:00,60.3,49.0,30.04,NW,311,0.0,0.0,66,0.00,,,0.00,WUHU216WMR968SP,2013-08-05 09:31:00,
2013-08-05 02:36:00,60.3,49.0,30.04,NW,311,0.0,0.0,66,0.00,,,0.00,WUHU216WMR968SP,2013-08-05 09:36:00,
2013-08-05 02:41:00,60.3,49.4,30.04,NW,311,0.0,0.0,67,0.00,,,0.00,WUHU216WMR968SP,2013-08-05 09:41:00,
2013-08-05 02:47:00,60.3,49.4,30.04,NW,311,0.0,0.0,67,0.00,,,0.00,WUHU216WMR968SP,2013-08-05 09:47:00,
2013-08-05 02:53:00,60.3,49.4,30.04,NW,311,0.0,0.0,67,0.00,,,0.00,WUHU216WMR968SP,2013-08-05 09:53:00,
2013-08-05 02:58:00,60.1,49.3,30.04,NW,311,0.0,0.0,67,0.00,,,0.00,WUHU216WMR968SP,2013-08-05 09:58:00,
2013-08-05 03:03:00,59.9,49.1,30.04,NW,311,0.0,0.0,67,0.00,,,0.00,WUHU216WMR968SP,2013-08-05 10:03:00,
2013-08-05 03:08:00,59.7,48.9,30.04,NW,311,0.0,0.0,67,0.00,,,0.00,WUHU216WMR968SP,2013-08-05 10:08:00,
2013-08-05 03:13:00,59.5,48.7,30.04,NW,311,0.0,0.0,67,0.00,,,0.00,WUHU216WMR968SP,2013-08-05 10:13:00,
2013-08-05 03:18:00,59.4,48.6,30.04,NW,311,0.0,0.0,67,0.00,,,0.00,WUHU216WMR968SP,2013-08-05 10:18:00,
2013-08-05 03:23:00,59.4,48.6,30.04,NW,311,0.0,0.0,67,0.00,,,0.00,WUHU216WMR968SP,2013-08-05 10:23:00,
2013-08-05 03:28:00,59.2,48.4,30.04,NW,311,0.0,0.0,67,0.00,,,0.00,WUHU216WMR968SP,2013-08-05 10:28:00,
2013-08-05 03:33:00,59.4,48.6,30.04,NW,311,0.0,0.0,67,0.00,,,0.00,WUHU216WMR968SP,2013-08-05 10:33:00,
2013-08-05 03:38:00,59.4,48.6,30.04,NW,311,0.0,0.0,67,0.00,,,0.00,WUHU216WMR968SP,2013-08-05 10:38:00,
2013-08-05 03:43:00,59.4,49.0,30.04,NW,311,0.0,0.0,68,0.00,,,0.00,WUHU216WMR968SP,2013-08-05 10:43:00,
2013-08-05 03:48:00,59.5,49.1,30.04,NW,311,0.0,0.0,68,0.00,,,0.00,WUHU216WMR968SP,2013-08-05 10:48:00,
2013-08-05 03:53:00,59.4,49.0,30.04,NW,311,0.0,0.0,68,0.00,,,0.00,WUHU216WMR968SP,2013-08-05 10:53:00,
2013-08-05 03:58:00,59.4,49.0,30.04,NW,311,0.0,0.0,68,0.00,,,0.00,WUHU216WMR968SP,2013-08-05 10:58:00,
2013-08-05 04:03:00,59.4,49.0,30.04,NW,311,0.0,0.0,68,0.00,,,0.00,WUHU216WMR968SP,2013-08-05 11:03:00,
2013-08-05 04:08:00,59.2,48.8,30.04,NW,311,0.0,0.0,68,0.00,,,0.00,WUHU216WMR968SP,2013-08-05 11:08:00,
2013-08-05 04:14:00,59.0,48.6,30.04,NW,311,0.0,0.0,68,0.00,,,0.00,WUHU216WMR968SP,2013-08-05 11:14:00,
2013-08-05 04:18:00,59.2,48.8,30.04,NW,311,0.0,0.0,68,0.00,,,0.00,WUHU216WMR968SP,2013-08-05 11:18:00,
2013-08-05 04:24:00,59.2,48.8,30.04,NW,311,0.0,0.0,68,0.00,,,0.00,WUHU216WMR968SP,2013-08-05 11:24:00,
2013-08-05 04:29:00,59.2,48.8,30.04,NW,311,0.0,0.0,68,0.00,,,0.00,WUHU216WMR968SP,2013-08-05 11:29:00,
2013-08-05 04:34:00,59.2,48.8,30.04,NW,311,0.0,0.0,68,0.00,,,0.00,WUHU216WMR968SP,2013-08-05 11:34:00,
2013-08-05 04:39:00,59.4,49.0,30.04,NW,311,0.0,0.0,68,0.00,,,0.00,WUHU216WMR968SP,2013-08-05 11:39:00,
2013-08-05 04:43:00,59.2,48.8,30.04,NW,311,0.0,0.0,68,0.00,,,0.00,WUHU216WMR968SP,2013-08-05 11:43:00,
2013-08-05 04:48:00,59.2,48.8,30.04,NW,311,0.0,0.0,68,0.00,,,0.00,WUHU216WMR968SP,2013-08-05 11:48:00,
2013-08-05 04:53:00,59.0,48.6,30.04,ENE,69,0.0,0.0,68,0.00,,,0.00,WUHU216WMR968SP,2013-08-05 11:53:00,
2013-08-05 04:59:00,58.8,48.4,30.04,ENE,69,0.0,0.0,68,0.00,,,0.00,WUHU216WMR968SP,2013-08-05 11:59:00,
2013-08-05 05:04:00,58.8,48.8,30.04,ENE,69,0.0,0.0,69,0.00,,,0.00,WUHU216WMR968SP,2013-08-05 12:04:00,
2013-08-05 05:10:00,59.0,49.0,30.04,ENE,69,0.0,0.0,69,0.00,,,0.00,WUHU216WMR968SP,2013-08-05 12:10:00,
2013-08-05 05:15:00,59.0,49.0,30.04,ENE,69,0.0,0.0,69,0.00,,,0.00,WUHU216WMR968SP,2013-08-05 12:15:00,
2013-08-05 05:20:00,59.2,49.6,30.04,ENE,69,0.0,0.0,70,0.00,,,0.00,WUHU216WMR968SP,2013-08-05 12:20:00,
2013-08-05 05:25:00,59.2,49.9,30.04,ENE,69,0.0,0.0,71,0.00,,,0.00,WUHU216WMR968SP,2013-08-05 12:25:00,
2013-08-05 05:30:00,59.2,49.9,30.04,ENE,69,0.0,0.0,71,0.00,,,0.00,WUHU216WMR968SP,2013-08-05 12:30:00,
2013-08-05 05:35:00,59.2,50.3,30.04,ENE,69,0.0,0.0,72,0.00,,,0.00,WUHU216WMR968SP,2013-08-05 12:35:00,
2013-08-05 05:40:00,59.4,50.9,30.04,ENE,69,0.0,0.0,73,0.00,,,0.00,WUHU216WMR968SP,2013-08-05 12:40:00,
2013-08-05 05:45:00,59.4,51.2,30.04,ENE,69,0.0,0.0,74,0.00,,,0.00,WUHU216WMR968SP,2013-08-05 12:45:00,
2013-08-05 05:51:00,59.4,51.2,30.04,ENE,69,0.0,0.0,74,0.00,,,0.00,WUHU216WMR968SP,2013-08-05 12:51:00,
2013-08-05 05:55:00,59.4,51.2,30.04,ENE,69,0.0,0.0,74,0.00,,,0.00,WUHU216WMR968SP,2013-08-05 12:55:00,
2013-08-05 06:01:00,59.4,51.2,30.04,ENE,69,0.0,0.0,74,0.00,,,0.00,WUHU216WMR968SP,2013-08-05 13:01:00,
2013-08-05 06:06:00,59.4,51.6,30.04,ENE,69,0.0,0.0,75,0.00,,,0.00,WUHU216WMR968SP,2013-08-05 13:06:00,
2013-08-05 06:11:00,59.4,51.9,30.07,ENE,69,0.0,0.0,76,0.00,,,0.00,WUHU216WMR968SP,2013-08-05 13:11:00,
2013-08-05 06:16:00,59.5,52.0,30.07,ENE,69,0.0,0.0,76,0.00,,,0.00,WUHU216WMR968SP,2013-08-05 13:16:00,
2013-08-05 06:21:00,59.5,52.0,30.07,ENE,69,0.0,0.0,76,0.00,,,0.00,WUHU216WMR968SP,2013-08-05 13:21:00,
2013-08-05 06:26:00,59.4,51.9,30.07,ENE,68,0.0,0.0,76,0.00,,,0.00,WUHU216WMR968SP,2013-08-05 13:26:00,
2013-08-05 06:31:00,59.4,52.3,30.07,ENE,69,0.0,0.0,77,0.00,,,0.00,WUHU216WMR968SP,2013-08-05 13:31:00,
2013-08-05 06:36:00,59.4,52.3,30.07,ENE,69,0.0,0.0,77,0.00,,,0.00,WUHU216WMR968SP,2013-08-05 13:36:00,
2013-08-05 06:41:00,59.7,52.9,30.07,ENE,69,0.0,0.0,78,0.00,,,0.00,WUHU216WMR968SP,2013-08-05 13:41:00,
2013-08-05 06:46:00,59.7,52.9,30.07,ENE,69,0.0,0.0,78,0.00,,,0.00,WUHU216WMR968SP,2013-08-05 13:46:00,
2013-08-05 06:51:00,59.7,53.2,30.07,ENE,77,0.0,2.2,79,0.00,,,0.00,WUHU216WMR968SP,2013-08-05 13:51:00,
2013-08-05 06:56:00,59.7,53.2,30.07,ESE,107,0.0,3.1,79,0.00,,,0.00,WUHU216WMR968SP,2013-08-05 13:56:00,
2013-08-05 07:01:00,59.7,53.2,30.07,East,98,0.0,4.0,79,0.00,,,0.00,WUHU216WMR968SP,2013-08-05 14:01:00,
2013-08-05 07:07:00,59.7,53.6,30.07,SE,133,0.0,4.0,80,0.00,,,0.00,WUHU216WMR968SP,2013-08-05 14:07:00,
2013-08-05 07:12:00,59.7,53.6,30.07,SE,133,0.0,3.6,80,0.00,,,0.00,WUHU216WMR968SP,2013-08-05 14:12:00,
2013-08-05 07:16:00,59.7,53.6,30.07,East,88,0.0,0.0,80,0.00,,,0.00,WUHU216WMR968SP,2013-08-05 14:16:00,
2013-08-05 07:22:00,59.7,53.9,30.07,East,97,0.0,2.2,81,0.00,,,0.00,WUHU216WMR968SP,2013-08-05 14:22:00,
2013-08-05 07:26:00,59.5,53.7,30.07,ESE,105,0.0,2.7,81,0.00,,,0.00,WUHU216WMR968SP,2013-08-05 14:26:00,
2013-08-05 07:32:00,59.5,53.7,30.07,ENE,75,0.0,2.7,81,0.00,,,0.00,WUHU216WMR968SP,2013-08-05 14:32:00,
2013-08-05 07:37:00,59.5,54.0,30.07,ENE,75,0.0,2.7,82,0.00,,,0.00,WUHU216WMR968SP,2013-08-05 14:37:00,
2013-08-05 07:42:00,59.5,54.4,30.07,ENE,75,0.0,0.0,83,0.00,,,0.00,WUHU216WMR968SP,2013-08-05 14:42:00,
2013-08-05 07:47:00,59.7,54.9,30.07,ENE,75,0.0,0.0,84,0.00,,,0.00,WUHU216WMR968SP,2013-08-05 14:47:00,
2013-08-05 07:52:00,59.9,55.4,30.07,ENE,75,0.0,0.0,85,0.00,,,0.00,WUHU216WMR968SP,2013-08-05 14:52:00,
2013-08-05 07:57:00,59.9,55.1,30.07,ENE,69,0.0,2.2,84,0.00,,,0.00,WUHU216WMR968SP,2013-08-05 14:57:00,
2013-08-05 08:02:00,60.1,55.6,30.07,ENE,69,0.0,2.2,85,0.00,,,0.00,WUHU216WMR968SP,2013-08-05 15:02:00,
2013-08-05 08:07:00,60.1,55.6,30.07,NNW,330,0.0,3.1,85,0.00,,,0.00,WUHU216WMR968SP,2013-08-05 15:07:00,
2013-08-05 08:12:00,60.1,55.9,30.07,NNW,330,0.0,3.1,86,0.00,,,0.00,WUHU216WMR968SP,2013-08-05 15:12:00,
2013-08-05 08:17:00,60.3,56.1,30.07,North,11,0.0,2.2,86,0.00,,,0.00,WUHU216WMR968SP,2013-08-05 15:17:00,
2013-08-05 08:22:00,60.3,56.1,30.07,North,11,0.0,0.0,86,0.00,,,0.00,WUHU216WMR968SP,2013-08-05 15:22:00,
2013-08-05 08:27:00,60.4,56.2,30.07,ESE,106,2.7,3.6,86,0.00,,,0.00,WUHU216WMR968SP,2013-08-05 15:27:00,
2013-08-05 08:32:00,60.6,56.7,30.07,East,100,0.0,3.6,87,0.00,,,0.00,WUHU216WMR968SP,2013-08-05 15:32:00,
2013-08-05 08:37:00,60.6,56.7,30.07,ESE,115,0.0,2.7,87,0.00,,,0.00,WUHU216WMR968SP,2013-08-05 15:37:00,
2013-08-05 08:43:00,61.0,57.1,30.07,SSW,204,0.0,2.7,87,0.00,,,0.00,WUHU216WMR968SP,2013-08-05 15:43:00,
2013-08-05 08:48:00,61.2,57.3,30.07,SSW,198,0.0,3.1,87,0.00,,,0.00,WUHU216WMR968SP,2013-08-05 15:48:00,
2013-08-05 08:53:00,61.3,57.1,30.07,SSW,201,0.0,3.1,86,0.00,,,0.00,WUHU216WMR968SP,2013-08-05 15:53:00,
2013-08-05 08:59:00,61.3,56.4,30.07,SW,227,3.1,4.0,84,0.00,,,0.00,WUHU216WMR968SP,2013-08-05 15:59:00,
2013-08-05 09:03:00,61.7,56.8,30.07,SW,236,2.2,4.5,84,0.00,,,0.00,WUHU216WMR968SP,2013-08-05 16:03:00,
2013-08-05 09:08:00,61.9,56.7,30.07,SW,225,3.6,4.0,83,0.00,,,0.00,WUHU216WMR968SP,2013-08-05 16:08:00,
2013-08-05 09:14:00,62.2,56.3,30.07,WSW,240,2.7,4.0,81,0.00,,,0.00,WUHU216WMR968SP,2013-08-05 16:14:00,
2013-08-05 09:19:00,62.6,56.1,30.07,SSW,207,0.0,4.0,79,0.00,,,0.00,WUHU216WMR968SP,2013-08-05 16:19:00,
2013-08-05 09:23:00,63.3,56.4,30.07,ESE,119,0.0,4.0,78,0.00,,,0.00,WUHU216WMR968SP,2013-08-05 16:23:00,
2013-08-05 09:29:00,64.0,56.4,30.07,SE,129,0.0,3.6,76,0.00,,,0.00,WUHU216WMR968SP,2013-08-05 16:29:00,
2013-08-05 09:34:00,64.8,56.4,30.07,SSW,212,2.7,4.9,74,0.00,,,0.00,WUHU216WMR968SP,2013-08-05 16:34:00,
2013-08-05 09:38:00,65.5,56.4,30.07,SSW,211,3.1,4.9,72,0.00,,,0.00,WUHU216WMR968SP,2013-08-05 16:38:00,
2013-08-05 09:44:00,65.8,55.1,30.07,SSW,198,3.6,4.9,68,0.00,,,0.00,WUHU216WMR968SP,2013-08-05 16:44:00,
2013-08-05 09:48:00,66.4,55.3,30.07,WSW,238,4.0,7.6,67,0.00,,,0.00,WUHU216WMR968SP,2013-08-05 16:48:00,
2013-08-05 09:54:00,66.4,54.0,30.07,WNW,293,2.7,7.6,64,0.00,,,0.00,WUHU216WMR968SP,2013-08-05 16:54:00,
2013-08-05 09:59:00,66.6,54.2,30.07,SW,228,0.0,5.4,64,0.00,,,0.00,WUHU216WMR968SP,2013-08-05 16:59:00,
2013-08-05 10:04:00,67.1,54.3,30.07,SW,227,2.7,3.6,63,0.00,,,0.00,WUHU216WMR968SP,2013-08-05 17:04:00,
2013-08-05 10:08:00,67.6,54.7,30.07,SSE,167,0.0,4.0,63,0.00,,,0.00,WUHU216WMR968SP,2013-08-05 17:08:00,
2013-08-05 10:14:00,68.2,54.9,30.07,SW,218,3.6,5.8,62,0.00,,,0.00,WUHU216WMR968SP,2013-08-05 17:14:00,
2013-08-05 10:19:00,68.2,53.0,30.07,WSW,239,2.2,5.8,58,0.00,,,0.00,WUHU216WMR968SP,2013-08-05 17:19:00,
2013-08-05 10:24:00,68.5,53.3,30.07,SW,224,2.7,5.4,58,0.00,,,0.00,WUHU216WMR968SP,2013-08-05 17:24:00,
2013-08-05 10:29:00,68.9,53.2,30.04,SW,224,3.1,5.4,57,0.00,,,0.00,WUHU216WMR968SP,2013-08-05 17:29:00,
2013-08-05 10:34:00,69.6,54.3,30.04,SW,218,4.5,6.3,58,0.00,,,0.00,WUHU216WMR968SP,2013-08-05 17:34:00,
2013-08-05 10:39:00,70.2,53.9,30.04,SSW,203,4.0,6.3,56,0.00,,,0.00,WUHU216WMR968SP,2013-08-05 17:39:00,
2013-08-05 10:44:00,70.5,53.7,30.04,WSW,248,4.0,6.3,55,0.00,,,0.00,WUHU216WMR968SP,2013-08-05 17:44:00,
2013-08-05 10:49:00,71.1,53.7,30.04,WSW,246,2.7,6.7,54,0.00,,,0.00,WUHU216WMR968SP,2013-08-05 17:49:00,
2013-08-05 10:55:00,71.6,54.2,30.04,SW,236,4.0,6.7,54,0.00,,,0.00,WUHU216WMR968SP,2013-08-05 17:55:00,
2013-08-05 11:00:00,72.1,54.7,30.04,South,186,4.9,6.3,54,0.00,,,0.00,WUHU216WMR968SP,2013-08-05 18:00:00,
2013-08-05 11:05:00,72.9,54.9,30.04,SSW,198,4.0,6.3,53,0.00,,,0.00,WUHU216WMR968SP,2013-08-05 18:05:00,
2013-08-05 11:10:00,73.4,54.8,30.04,SW,226,4.0,6.3,52,0.00,,,0.00,WUHU216WMR968SP,2013-08-05 18:10:00,
2013-08-05 11:15:00,73.9,55.3,30.04,South,182,2.2,6.3,52,0.00,,,0.00,WUHU216WMR968SP,2013-08-05 18:15:00,
2013-08-05 11:20:00,74.7,56.0,30.04,South,184,4.5,6.3,52,0.00,,,0.00,WUHU216WMR968SP,2013-08-05 18:20:00,
2013-08-05 11:25:00,75.2,55.9,30.04,South,172,3.6,6.3,51,0.00,,,0.00,WUHU216WMR968SP,2013-08-05 18:25:00,
2013-08-05 11:30:00,75.6,56.3,30.04,SW,230,2.7,5.8,51,0.00,,,0.00,WUHU216WMR968SP,2013-08-05 18:30:00,
2013-08-05 11:35:00,75.6,55.7,30.04,NNW,340,2.7,6.3,50,0.00,,,0.00,WUHU216WMR968SP,2013-08-05 18:35:00,
2013-08-05 11:40:00,75.2,55.9,30.01,WSW,246,5.4,6.3,51,0.00,,,0.00,WUHU216WMR968SP,2013-08-05 18:40:00,
2013-08-05 11:45:00,75.4,55.6,30.01,SSE,157,2.2,6.3,50,0.00,,,0.00,WUHU216WMR968SP,2013-08-05 18:45:00,
2013-08-05 11:50:00,75.9,56.0,30.01,SW,223,3.1,5.8,50,0.00,,,0.00,WUHU216WMR968SP,2013-08-05 18:50:00,
2013-08-05 11:55:00,76.3,56.4,30.04,WSW,256,2.7,5.8,50,0.00,,,0.00,WUHU216WMR968SP,2013-08-05 18:55:00,
2013-08-05 12:00:00,76.8,56.8,30.04,SSW,203,2.7,7.2,50,0.00,,,0.00,WUHU216WMR968SP,2013-08-05 19:00:00,
2013-08-05 12:05:00,77.0,55.9,30.04,SW,225,3.6,7.6,48,0.00,,,0.00,WUHU216WMR968SP,2013-08-05 19:05:00,
2013-08-05 12:11:00,77.2,56.0,30.04,SSW,199,3.1,7.6,48,0.00,,,0.00,WUHU216WMR968SP,2013-08-05 19:11:00,
2013-08-05 12:16:00,77.5,56.3,30.04,WNW,288,3.6,7.2,48,0.00,,,0.00,WUHU216WMR968SP,2013-08-05 19:16:00,
2013-08-05 12:22:00,77.5,56.3,30.04,SW,232,3.1,7.2,48,0.00,,,0.00,WUHU216WMR968SP,2013-08-05 19:22:00,
2013-08-05 12:27:00,77.7,56.5,30.04,SSW,211,4.5,7.2,48,0.00,,,0.00,WUHU216WMR968SP,2013-08-05 19:27:00,
2013-08-05 12:32:00,78.6,57.3,30.04,SSW,211,3.6,7.2,48,0.00,,,0.00,WUHU216WMR968SP,2013-08-05 19:32:00,
2013-08-05 12:37:00,78.6,55.5,30.04,WSW,245,5.8,7.6,45,0.00,,,0.00,WUHU216WMR968SP,2013-08-05 19:37:00,
2013-08-05 12:42:00,78.6,55.5,30.04,West,260,2.7,7.6,45,0.00,,,0.00,WUHU216WMR968SP,2013-08-05 19:42:00,
2013-08-05 12:47:00,78.6,55.5,30.04,SW,226,3.1,5.8,45,0.00,,,0.00,WUHU216WMR968SP,2013-08-05 19:47:00,
2013-08-05 12:52:00,79.0,55.9,30.04,SW,222,4.5,6.7,45,0.00,,,0.00,WUHU216WMR968SP,2013-08-05 19:52:00,
2013-08-05 12:57:00,78.6,55.5,30.01,West,270,0.0,6.7,45,0.00,,,0.00,WUHU216WMR968SP,2013-08-05 19:57:00,
2013-08-05 13:02:00,79.0,55.9,30.01,SW,229,2.2,8.3,45,0.00,,,0.00,WUHU216WMR968SP,2013-08-05 20:02:00,
2013-08-05 13:07:00,79.5,56.3,30.01,South,182,4.0,8.3,45,0.00,,,0.00,WUHU216WMR968SP,2013-08-05 20:07:00,
2013-08-05 13:12:00,80.4,57.1,30.01,SSW,196,4.5,7.6,45,0.00,,,0.00,WUHU216WMR968SP,2013-08-05 20:12:00,
2013-08-05 13:17:00,81.1,57.1,30.01,NW,320,5.8,7.6,44,0.00,,,0.00,WUHU216WMR968SP,2013-08-05 20:17:00,
2013-08-05 13:22:00,81.1,57.1,30.01,SSW,211,4.9,6.7,44,0.00,,,0.00,WUHU216WMR968SP,2013-08-05 20:22:00,
2013-08-05 13:28:00,81.3,57.3,30.01,NW,305,4.9,7.2,44,0.00,,,0.00,WUHU216WMR968SP,2013-08-05 20:28:00,
2013-08-05 13:33:00,81.5,57.5,30.01,SW,235,3.6,7.2,44,0.00,,,0.00,WUHU216WMR968SP,2013-08-05 20:33:00,
2013-08-05 13:38:00,81.7,57.7,30.01,SSW,203,4.0,8.1,44,0.00,,,0.00,WUHU216WMR968SP,2013-08-05 20:38:00,
2013-08-05 13:43:00,81.9,57.9,29.98,NW,312,3.1,8.1,44,0.00,,,0.00,WUHU216WMR968SP,2013-08-05 20:43:00,
2013-08-05 13:48:00,81.9,57.9,29.98,WSW,249,4.0,8.3,44,0.00,,,0.00,WUHU216WMR968SP,2013-08-05 20:48:00,
2013-08-05 13:53:00,81.9,57.9,29.98,SW,231,5.4,8.7,44,0.00,,,0.00,WUHU216WMR968SP,2013-08-05 20:53:00,
2013-08-05 13:58:00,82.0,57.9,29.98,WSW,238,6.7,8.7,44,0.00,,,0.00,WUHU216WMR968SP,2013-08-05 20:58:00,
2013-08-05 14:03:00,82.0,57.9,29.98,SW,227,4.5,8.1,44,0.00,,,0.00,WUHU216WMR968SP,2013-08-05 21:03:00,
2013-08-05 14:08:00,82.4,58.3,29.98,SW,224,3.1,8.1,44,0.00,,,0.00,WUHU216WMR968SP,2013-08-05 21:08:00,
2013-08-05 14:13:00,82.9,58.8,29.98,SSW,212,4.9,8.1,44,0.00,,,0.00,WUHU216WMR968SP,2013-08-05 21:13:00,
2013-08-05 14:18:00,82.9,58.8,29.98,SW,224,4.0,8.3,44,0.00,,,0.00,WUHU216WMR968SP,2013-08-05 21:18:00,
2013-08-05 14:23:00,82.8,58.7,29.98,SW,227,4.5,8.7,44,0.00,,,0.00,WUHU216WMR968SP,2013-08-05 21:23:00,
2013-08-05 14:29:00,82.9,58.8,29.98,SW,229,3.6,8.7,44,0.00,,,0.00,WUHU216WMR968SP,2013-08-05 21:29:00,
2013-08-05 14:40:00,83.7,59.5,29.98,SW,228,4.5,8.3,44,0.00,,,0.00,WUHU216WMR968SP,2013-08-05 21:40:00,
2013-08-05 14:45:00,83.7,59.5,29.98,SSW,198,3.6,7.6,44,0.00,,,0.00,WUHU216WMR968SP,2013-08-05 21:45:00,
2013-08-05 14:50:00,83.3,59.1,29.98,SE,138,4.9,7.6,44,0.00,,,0.00,WUHU216WMR968SP,2013-08-05 21:50:00,
2013-08-05 14:55:00,83.7,59.5,29.98,SW,233,3.6,6.3,44,0.00,,,0.00,WUHU216WMR968SP,2013-08-05 21:55:00,
2013-08-05 15:00:00,83.8,59.6,29.98,SW,230,5.4,8.7,44,0.00,,,0.00,WUHU216WMR968SP,2013-08-05 22:00:00,
2013-08-05 15:05:00,83.8,59.6,29.98,SW,234,3.1,8.7,44,0.00,,,0.00,WUHU216WMR968SP,2013-08-05 22:05:00,
2013-08-05 15:10:00,83.8,59.6,29.98,SW,222,3.6,8.7,44,0.00,,,0.00,WUHU216WMR968SP,2013-08-05 22:10:00,
2013-08-05 15:16:00,83.8,59.6,29.98,WSW,242,4.9,8.7,44,0.00,,,0.00,WUHU216WMR968SP,2013-08-05 22:16:00,
2013-08-05 15:21:00,83.7,59.5,29.98,WSW,238,4.5,8.1,44,0.00,,,0.00,WUHU216WMR968SP,2013-08-05 22:21:00,
2013-08-05 15:26:00,83.7,59.5,29.95,WSW,241,5.4,8.3,44,0.00,,,0.00,WUHU216WMR968SP,2013-08-05 22:26:00,
2013-08-05 15:31:00,83.5,59.3,29.95,SW,221,2.7,8.3,44,0.00,,,0.00,WUHU216WMR968SP,2013-08-05 22:31:00,
2013-08-05 15:36:00,82.8,58.7,29.95,NNW,331,4.5,10.1,44,0.00,,,0.00,WUHU216WMR968SP,2013-08-05 22:36:00,
2013-08-05 15:41:00,82.8,58.7,29.95,SSW,194,4.5,10.1,44,0.00,,,0.00,WUHU216WMR968SP,2013-08-05 22:41:00,
2013-08-05 15:46:00,82.2,58.1,29.95,WSW,242,5.4,6.3,44,0.00,,,0.00,WUHU216WMR968SP,2013-08-05 22:46:00,
2013-08-05 15:51:00,82.4,58.3,29.95,WSW,245,5.8,8.3,44,0.00,,,0.00,WUHU216WMR968SP,2013-08-05 22:51:00,
2013-08-05 15:56:00,82.9,58.8,29.95,South,191,4.0,8.3,44,0.00,,,0.00,WUHU216WMR968SP,2013-08-05 22:56:00,
2013-08-05 16:01:00,83.5,59.3,29.95,SW,222,5.4,9.6,44,0.00,,,0.00,WUHU216WMR968SP,2013-08-05 23:01:00,
2013-08-05 16:06:00,82.8,58.7,29.95,WSW,252,3.1,9.6,44,0.00,,,0.00,WUHU216WMR968SP,2013-08-05 23:06:00,
2013-08-05 16:11:00,82.4,58.3,29.95,NW,322,4.0,9.2,44,0.00,,,0.00,WUHU216WMR968SP,2013-08-05 23:11:00,
2013-08-05 16:16:00,82.0,57.9,29.95,SW,232,4.9,9.2,44,0.00,,,0.00,WUHU216WMR968SP,2013-08-05 23:16:00,
2013-08-05 16:21:00,82.0,57.9,29.95,SW,229,8.1,10.5,44,0.00,,,0.00,WUHU216WMR968SP,2013-08-05 23:21:00,
2013-08-05 16:26:00,82.0,57.9,29.92,SSE,158,6.7,10.5,44,0.00,,,0.00,WUHU216WMR968SP,2013-08-05 23:26:00,
2013-08-05 16:32:00,82.2,58.1,29.92,SW,228,5.4,8.3,44,0.00,,,0.00,WUHU216WMR968SP,2013-08-05 23:32:00,
2013-08-05 16:37:00,82.0,57.9,29.92,WSW,237,5.8,8.3,44,0.00,,,0.00,WUHU216WMR968SP,2013-08-05 23:37:00,
2013-08-05 16:42:00,81.9,57.9,29.92,SW,215,5.4,8.3,44,0.00,,,0.00,WUHU216WMR968SP,2013-08-05 23:42:00,
2013-08-05 16:47:00,81.7,57.7,29.92,SW,219,4.9,8.3,44,0.00,,,0.00,WUHU216WMR968SP,2013-08-05 23:47:00,
2013-08-05 16:52:00,81.5,57.5,29.92,WSW,254,7.2,9.2,44,0.00,,,0.00,WUHU216WMR968SP,2013-08-05 23:52:00,
2013-08-05 16:57:00,81.3,57.3,29.92,SW,230,4.9,9.2,44,0.00,,,0.00,WUHU216WMR968SP,2013-08-05 23:57:00,
2013-08-05 17:02:00,81.1,57.1,29.92,WSW,247,4.9,8.3,44,0.00,,,0.00,WUHU216WMR968SP,2013-08-06 00:02:00,
2013-08-05 17:07:00,81.1,57.1,29.92,SSW,206,3.1,8.1,44,0.00,,,0.00,WUHU216WMR968SP,2013-08-06 00:07:00,
2013-08-05 17:12:00,81.0,57.0,29.92,SW,219,2.7,6.3,44,0.00,,,0.00,WUHU216WMR968SP,2013-08-06 00:12:00,
2013-08-05 17:17:00,81.0,57.0,29.92,SW,227,4.5,6.3,44,0.00,,,0.00,WUHU216WMR968SP,2013-08-06 00:17:00,
2013-08-05 17:22:00,81.0,57.0,29.92,WSW,240,4.9,8.7,44,0.00,,,0.00,WUHU216WMR968SP,2013-08-06 00:22:00,
2013-08-05 17:28:00,80.6,56.7,29.92,WSW,241,3.6,8.7,44,0.00,,,0.00,WUHU216WMR968SP,2013-08-06 00:28:00,
2013-08-05 17:33:00,80.2,57.0,29.92,SSW,202,3.6,8.3,45,0.00,,,0.00,WUHU216WMR968SP,2013-08-06 00:33:00,
2013-08-05 17:38:00,80.2,57.0,29.92,SSW,194,4.9,8.7,45,0.00,,,0.00,WUHU216WMR968SP,2013-08-06 00:38:00,
2013-08-05 17:44:00,80.1,56.9,29.92,South,190,5.4,8.7,45,0.00,,,0.00,WUHU216WMR968SP,2013-08-06 00:44:00,
2013-08-05 17:49:00,79.9,56.7,29.92,WSW,254,5.8,8.7,45,0.00,,,0.00,WUHU216WMR968SP,2013-08-06 00:49:00,
2013-08-05 17:54:00,79.9,56.7,29.92,SW,232,4.0,8.7,45,0.00,,,0.00,WUHU216WMR968SP,2013-08-06 00:54:00,
2013-08-05 17:59:00,79.7,56.5,29.92,ESE,109,2.7,8.1,45,0.00,,,0.00,WUHU216WMR968SP,2013-08-06 00:59:00,
2013-08-05 18:04:00,79.5,56.3,29.92,West,260,6.3,8.1,45,0.00,,,0.00,WUHU216WMR968SP,2013-08-06 01:04:00,
2013-08-05 18:09:00,79.3,56.1,29.92,South,189,2.2,8.1,45,0.00,,,0.00,WUHU216WMR968SP,2013-08-06 01:09:00,
2013-08-05 18:14:00,79.3,56.1,29.92,WSW,244,4.9,7.2,45,0.00,,,0.00,WUHU216WMR968SP,2013-08-06 01:14:00,
2013-08-05 18:19:00,79.3,56.1,29.92,ESE,111,5.4,8.1,45,0.00,,,0.00,WUHU216WMR968SP,2013-08-06 01:19:00,
2013-08-05 18:24:00,79.2,56.0,29.92,South,176,2.2,8.1,45,0.00,,,0.00,WUHU216WMR968SP,2013-08-06 01:24:00,
2013-08-05 18:29:00,78.8,55.7,29.95,SSW,195,3.1,8.1,45,0.00,,,0.00,WUHU216WMR968SP,2013-08-06 01:29:00,
2013-08-05 18:34:00,78.6,55.5,29.95,South,190,4.0,8.1,45,0.00,,,0.00,WUHU216WMR968SP,2013-08-06 01:34:00,
2013-08-05 18:39:00,78.6,55.5,29.95,ESE,103,4.9,6.7,45,0.00,,,0.00,WUHU216WMR968SP,2013-08-06 01:39:00,
2013-08-05 18:44:00,78.3,55.2,29.95,South,190,3.6,6.7,45,0.00,,,0.00,WUHU216WMR968SP,2013-08-06 01:44:00,
2013-08-05 18:49:00,77.7,54.7,29.95,WSW,243,3.1,7.2,45,0.00,,,0.00,WUHU216WMR968SP,2013-08-06 01:49:00,
2013-08-05 18:54:00,77.5,54.5,29.95,SSW,203,3.1,7.2,45,0.00,,,0.00,WUHU216WMR968SP,2013-08-06 01:54:00,
2013-08-05 18:59:00,77.2,54.2,29.95,South,186,5.4,6.7,45,0.00,,,0.00,WUHU216WMR968SP,2013-08-06 01:59:00,
2013-08-05 19:04:00,76.8,53.9,29.95,East,85,2.2,6.3,45,0.00,,,0.00,WUHU216WMR968SP,2013-08-06 02:04:00,
2013-08-05 19:10:00,76.5,53.6,29.95,South,182,2.7,5.4,45,0.00,,,0.00,WUHU216WMR968SP,2013-08-06 02:10:00,
2013-08-05 19:15:00,75.9,53.0,29.95,SSW,213,3.6,6.3,45,0.00,,,0.00,WUHU216WMR968SP,2013-08-06 02:15:00,
2013-08-05 19:20:00,75.6,52.8,29.95,SSW,209,4.0,6.3,45,0.00,,,0.00,WUHU216WMR968SP,2013-08-06 02:20:00,
2013-08-05 19:25:00,75.0,52.8,29.98,ESE,122,2.2,6.3,46,0.00,,,0.00,WUHU216WMR968SP,2013-08-06 02:25:00,
2013-08-05 19:30:00,74.5,52.4,29.98,SSW,204,3.1,5.4,46,0.00,,,0.00,WUHU216WMR968SP,2013-08-06 02:30:00,
2013-08-05 19:35:00,74.3,52.2,29.98,SSW,205,0.0,5.4,46,0.00,,,0.00,WUHU216WMR968SP,2013-08-06 02:35:00,
2013-08-05 19:40:00,73.9,51.8,29.98,WSW,241,0.0,5.4,46,0.00,,,0.00,WUHU216WMR968SP,2013-08-06 02:40:00,
2013-08-05 19:45:00,73.8,51.7,29.98,SSW,196,3.1,5.4,46,0.00,,,0.00,WUHU216WMR968SP,2013-08-06 02:45:00,
2013-08-05 19:50:00,73.4,51.4,29.98,SW,231,2.7,5.4,46,0.00,,,0.00,WUHU216WMR968SP,2013-08-06 02:50:00,
2013-08-05 19:55:00,72.9,50.9,29.98,SSW,193,2.7,4.0,46,0.00,,,0.00,WUHU216WMR968SP,2013-08-06 02:55:00,
2013-08-05 20:00:00,72.5,50.5,29.98,ESE,112,2.7,5.8,46,0.00,,,0.00,WUHU216WMR968SP,2013-08-06 03:00:00,
2013-08-05 20:05:00,72.3,50.4,29.98,East,81,0.0,5.8,46,0.00,,,0.00,WUHU216WMR968SP,2013-08-06 03:05:00,
2013-08-05 20:10:00,71.8,49.9,29.98,SW,217,2.2,4.9,46,0.00,,,0.00,WUHU216WMR968SP,2013-08-06 03:10:00,
2013-08-05 20:15:00,71.2,49.9,29.98,SSW,199,3.6,5.4,47,0.00,,,0.00,WUHU216WMR968SP,2013-08-06 03:15:00,
2013-08-05 20:20:00,70.7,49.5,29.98,ESE,117,2.7,5.4,47,0.00,,,0.00,WUHU216WMR968SP,2013-08-06 03:20:00,
2013-08-05 20:25:00,70.3,49.1,29.98,SE,129,2.2,5.4,47,0.00,,,0.00,WUHU216WMR968SP,2013-08-06 03:25:00,
2013-08-05 20:30:00,69.8,48.7,29.98,SSW,203,2.2,4.0,47,0.00,,,0.00,WUHU216WMR968SP,2013-08-06 03:30:00,
2013-08-05 20:35:00,69.4,48.3,29.98,SW,222,2.7,4.9,47,0.00,,,0.00,WUHU216WMR968SP,2013-08-06 03:35:00,
2013-08-05 20:40:00,69.3,48.2,30.01,SSE,166,0.0,4.9,47,0.00,,,0.00,WUHU216WMR968SP,2013-08-06 03:40:00,
2013-08-05 20:45:00,69.3,48.2,30.01,South,189,3.1,4.0,47,0.00,,,0.00,WUHU216WMR968SP,2013-08-06 03:45:00,
2013-08-05 20:50:00,69.1,48.0,30.01,ESE,110,0.0,5.8,47,0.00,,,0.00,WUHU216WMR968SP,2013-08-06 03:50:00,
2013-08-05 20:55:00,69.1,48.0,30.01,SW,220,2.7,5.8,47,0.00,,,0.00,WUHU216WMR968SP,2013-08-06 03:55:00,
2013-08-05 21:00:00,68.7,47.7,30.01,SSW,213,2.7,4.0,47,0.00,,,0.00,WUHU216WMR968SP,2013-08-06 04:00:00,
2013-08-05 21:05:00,68.4,47.4,30.01,SW,225,3.6,5.4,47,0.00,,,0.00,WUHU216WMR968SP,2013-08-06 04:05:00,
2013-08-05 21:10:00,68.2,47.2,30.04,SW,214,2.2,5.4,47,0.00,,,0.00,WUHU216WMR968SP,2013-08-06 04:10:00,
2013-08-05 21:15:00,68.0,47.0,30.04,South,181,2.2,5.4,47,0.00,,,0.00,WUHU216WMR968SP,2013-08-06 04:15:00,
2013-08-05 21:20:00,68.0,48.7,30.04,SSW,211,2.2,4.5,50,0.00,,,0.00,WUHU216WMR968SP,2013-08-06 04:20:00,
2013-08-05 21:25:00,67.8,48.5,30.04,SE,135,0.0,4.5,50,0.00,,,0.00,WUHU216WMR968SP,2013-08-06 04:25:00,
2013-08-05 21:30:00,67.6,48.3,30.04,South,175,0.0,4.0,50,0.00,,,0.00,WUHU216WMR968SP,2013-08-06 04:30:00,
2013-08-05 21:35:00,67.3,48.1,30.04,ESE,122,2.2,4.0,50,0.00,,,0.00,WUHU216WMR968SP,2013-08-06 04:35:00,
2013-08-05 21:40:00,67.3,48.1,30.07,SW,220,2.2,4.0,50,0.00,,,0.00,WUHU216WMR968SP,2013-08-06 04:40:00,
2013-08-05 21:45:00,67.1,47.9,30.07,South,191,2.7,4.0,50,0.00,,,0.00,WUHU216WMR968SP,2013-08-06 04:45:00,
2013-08-05 21:50:00,66.9,48.8,30.07,SSW,198,2.2,4.0,52,0.00,,,0.00,WUHU216WMR968SP,2013-08-06 04:50:00,
2013-08-05 21:55:00,66.6,48.5,30.07,SE,134,2.2,4.9,52,0.00,,,0.00,WUHU216WMR968SP,2013-08-06 04:55:00,
2013-08-05 22:00:00,66.2,48.6,30.07,ESE,113,0.0,4.9,53,0.00,,,0.00,WUHU216WMR968SP,2013-08-06 05:00:00,
2013-08-05 22:05:00,66.0,48.5,30.07,SE,145,0.0,3.6,53,0.00,,,0.00,WUHU216WMR968SP,2013-08-06 05:05:00,
2013-08-05 22:10:00,65.8,48.3,30.07,ESE,116,0.0,3.1,53,0.00,,,0.00,WUHU216WMR968SP,2013-08-06 05:10:00,
2013-08-05 22:15:00,65.7,48.2,30.07,East,98,2.7,5.4,53,0.00,,,0.00,WUHU216WMR968SP,2013-08-06 05:15:00,
2013-08-05 22:20:00,65.5,48.5,30.07,SE,130,0.0,5.4,54,0.00,,,0.00,WUHU216WMR968SP,2013-08-06 05:20:00,
2013-08-05 22:25:00,65.3,48.3,30.07,South,191,0.0,4.5,54,0.00,,,0.00,WUHU216WMR968SP,2013-08-06 05:25:00,
2013-08-05 22:30:00,65.1,48.1,30.07,SE,133,0.0,3.6,54,0.00,,,0.00,WUHU216WMR968SP,2013-08-06 05:30:00,
2013-08-05 22:35:00,65.1,48.1,30.07,SE,131,2.2,3.6,54,0.00,,,0.00,WUHU216WMR968SP,2013-08-06 05:35:00,
2013-08-05 22:40:00,64.8,47.9,30.07,ESE,121,0.0,4.0,54,0.00,,,0.00,WUHU216WMR968SP,2013-08-06 05:40:00,
2013-08-05 22:45:00,64.8,48.4,30.07,ESE,121,0.0,4.0,55,0.00,,,0.00,WUHU216WMR968SP,2013-08-06 05:45:00,
2013-08-05 22:50:00,64.6,48.2,30.07,SE,140,0.0,3.6,55,0.00,,,0.00,WUHU216WMR968SP,2013-08-06 05:50:00,
2013-08-05 22:55:00,64.4,48.0,30.07,SE,132,0.0,3.6,55,0.00,,,0.00,WUHU216WMR968SP,2013-08-06 05:55:00,
2013-08-05 23:00:00,64.2,48.3,30.07,East,99,0.0,3.6,56,0.00,,,0.00,WUHU216WMR968SP,2013-08-06 06:00:00,
2013-08-05 23:05:00,64.2,48.3,30.07,East,99,0.0,2.7,56,0.00,,,0.00,WUHU216WMR968SP,2013-08-06 06:05:00,
2013-08-05 23:10:00,64.2,48.3,30.07,ESE,120,0.0,3.1,56,0.00,,,0.00,WUHU216WMR968SP,2013-08-06 06:10:00,
2013-08-05 23:15:00,64.2,48.3,30.07,ESE,120,0.0,3.1,56,0.00,,,0.00,WUHU216WMR968SP,2013-08-06 06:15:00,
2013-08-05 23:20:00,64.0,48.1,30.07,ESE,120,0.0,0.0,56,0.00,,,0.00,WUHU216WMR968SP,2013-08-06 06:20:00,
2013-08-05 23:25:00,64.0,48.6,30.07,ESE,122,0.0,3.6,57,0.00,,,0.00,WUHU216WMR968SP,2013-08-06 06:25:00,
2013-08-05 23:30:00,63.9,48.5,30.07,ESE,122,0.0,3.6,57,0.00,,,0.00,WUHU216WMR968SP,2013-08-06 06:30:00,
2013-08-05 23:35:00,63.9,48.5,30.07,ESE,120,0.0,3.6,57,0.00,,,0.00,WUHU216WMR968SP,2013-08-06 06:35:00,
2013-08-05 23:40:00,63.7,48.3,30.07,ESE,114,0.0,4.0,57,0.00,,,0.00,WUHU216WMR968SP,2013-08-06 06:40:00,
2013-08-05 23:45:00,63.5,48.6,30.07,ESE,114,0.0,4.0,58,0.00,,,0.00,WUHU216WMR968SP,2013-08-06 06:45:00,
2013-08-05 23:50:00,63.3,48.4,30.07,ESE,114,0.0,2.2,58,0.00,,,0.00,WUHU216WMR968SP,2013-08-06 06:50:00,
2013-08-05 23:55:00,63.3,48.4,30.07,ESE,113,0.0,0.0,58,0.00,,,0.00,WUHU216WMR968SP,2013-08-06 06:55:00,